createdAt,value
2023-03-22T00:01:53.582Z,4.78
2023-03-22T00:04:42.741Z,4.88
2023-03-22T00:07:28.618Z,4.40
2023-03-22T00:10:14.159Z,4.35
2023-03-22T00:12:59.979Z,4.20
2023-03-22T00:15:49.021Z,4.45
2023-03-22T00:18:35.103Z,5.22
2023-03-22T00:21:22.728Z,4.22
2023-03-22T00:24:08.697Z,4.22
2023-03-22T00:26:54.907Z,3.55
2023-03-22T00:29:41.098Z,2.92
2023-03-22T00:32:28.780Z,3.55
2023-03-22T00:35:14.820Z,3.13
2023-03-22T00:38:06.291Z,3.13
2023-03-22T00:40:52.288Z,3.40
2023-03-22T00:43:38.599Z,3.50
2023-03-22T00:46:24.607Z,3.38
2023-03-22T00:49:10.367Z,3.25
2023-03-22T00:51:56.368Z,4.00
2023-03-22T00:54:43.766Z,3.65
2023-03-22T00:57:29.487Z,3.60
2023-03-22T01:00:16.777Z,2.78
2023-03-22T01:03:04.806Z,3.45
2023-03-22T01:05:55.475Z,3.08
2023-03-22T01:08:41.306Z,2.72
2023-03-22T01:11:29.021Z,2.95
2023-03-22T01:14:15.026Z,2.80
2023-03-22T01:17:01.056Z,2.70
2023-03-22T01:19:46.961Z,2.85
2023-03-22T01:22:32.665Z,2.88
2023-03-22T01:25:18.504Z,2.83
2023-03-22T01:28:06.837Z,3.30
2023-03-22T01:30:52.728Z,2.92
2023-03-22T01:33:38.599Z,3.25
2023-03-22T01:36:24.352Z,3.17
2023-03-22T01:39:10.492Z,3.30
2023-03-22T01:41:57.506Z,3.35
2023-03-22T01:45:04.966Z,3.05
2023-03-22T01:47:55.014Z,2.95
2023-03-22T01:50:45.745Z,3.33
2023-03-22T01:53:35.894Z,2.88
2023-03-22T01:56:30.020Z,3.00
2023-03-22T01:59:16.165Z,3.55
2023-03-22T02:02:22.293Z,3.50
2023-03-22T02:05:16.675Z,3.67
2023-03-22T02:08:04.457Z,3.85
2023-03-22T02:11:11.833Z,3.80
2023-03-22T02:14:43.283Z,3.67
2023-03-22T02:17:59.859Z,4.20
2023-03-22T02:21:02.614Z,4.60
2023-03-22T02:24:13.843Z,5.10
2023-03-22T02:27:25.540Z,4.82
2023-03-22T02:30:49.051Z,5.18
2023-03-22T02:34:02.274Z,5.65
2023-03-22T02:37:19.404Z,6.18
2023-03-22T02:40:14.388Z,7.30
2023-03-22T02:43:06.241Z,6.88
2023-03-22T02:45:57.074Z,7.03
2023-03-22T02:48:48.986Z,7.60
2023-03-22T02:51:41.059Z,7.47
2023-03-22T02:54:33.493Z,7.55
2023-03-22T02:57:29.969Z,7.63
2023-03-22T03:00:19.147Z,7.75
2023-03-22T03:03:12.626Z,7.97
2023-03-22T03:06:00.340Z,8.23
2023-03-22T03:08:50.820Z,8.48
2023-03-22T03:11:36.844Z,8.00
2023-03-22T03:14:26.842Z,8.57
2023-03-22T03:17:23.225Z,9.25
2023-03-22T03:20:29.966Z,8.30
2023-03-22T03:23:28.570Z,9.73
2023-03-22T03:26:22.366Z,9.82
2023-03-22T03:29:14.224Z,8.73
2023-03-22T03:32:07.812Z,9.40
2023-03-22T03:34:59.365Z,8.75
2023-03-22T03:37:48.500Z,9.77
2023-03-22T03:40:37.657Z,9.52
2023-03-22T03:43:25.621Z,9.07
2023-03-22T03:46:12.315Z,9.70
2023-03-22T03:49:00.096Z,9.23
2023-03-22T03:51:48.614Z,9.60
2023-03-22T03:54:34.526Z,9.25
2023-03-22T03:57:22.247Z,8.73
2023-03-22T04:00:09.518Z,8.38
2023-03-22T04:03:27.905Z,8.98
2023-03-22T04:06:35.010Z,8.27
2023-03-22T04:09:30.735Z,9.00
2023-03-22T04:12:23.457Z,8.93
2023-03-22T04:15:28.263Z,8.98
2023-03-22T04:18:19.746Z,8.48
2023-03-22T04:21:06.891Z,8.73
2023-03-22T04:24:04.134Z,8.60
2023-03-22T04:26:55.054Z,7.93
2023-03-22T04:29:48.203Z,8.13
2023-03-22T04:32:50.843Z,8.13
2023-03-22T04:35:41.490Z,8.00
2023-03-22T04:38:27.104Z,7.72
2023-03-22T04:41:16.019Z,7.55
2023-03-22T04:44:06.731Z,7.60
2023-03-22T04:46:56.561Z,7.47
2023-03-22T04:49:42.701Z,7.65
2023-03-22T04:52:29.055Z,7.15
2023-03-22T04:55:16.015Z,6.78
2023-03-22T04:58:04.724Z,6.43
2023-03-22T05:00:52.784Z,6.68
2023-03-22T05:03:40.119Z,6.97
2023-03-22T05:06:26.336Z,6.15
2023-03-22T05:09:23.459Z,6.20
2023-03-22T05:12:11.378Z,5.75
2023-03-22T05:15:07.479Z,6.45
2023-03-22T05:17:57.651Z,6.18
2023-03-22T05:20:43.404Z,6.18
2023-03-22T05:23:33.062Z,6.18
2023-03-22T05:26:20.350Z,5.38
2023-03-22T05:29:06.458Z,5.95
2023-03-22T05:32:07.428Z,5.22
2023-03-22T05:34:53.158Z,5.25
2023-03-22T05:37:54.193Z,4.90
2023-03-22T05:40:41.424Z,5.35
2023-03-22T05:43:27.543Z,5.50
2023-03-22T05:46:13.604Z,4.75
2023-03-22T05:49:11.676Z,4.45
2023-03-22T05:51:58.181Z,4.50
2023-03-22T05:54:51.611Z,4.97
2023-03-22T05:57:37.214Z,4.45
2023-03-22T06:00:25.806Z,5.30
2023-03-22T06:03:42.759Z,5.35
2023-03-22T06:06:37.782Z,4.75
2023-03-22T06:09:29.378Z,4.60
2023-03-22T06:12:16.235Z,5.47
2023-03-22T06:15:08.029Z,4.68
2023-03-22T06:18:05.596Z,4.30
2023-03-22T06:20:57.483Z,4.47
2023-03-22T06:23:45.628Z,4.70
2023-03-22T06:26:31.468Z,4.00
2023-03-22T06:29:17.521Z,3.88
2023-03-22T06:32:04.192Z,4.38
2023-03-22T06:34:50.337Z,4.05
2023-03-22T06:37:38.946Z,4.07
2023-03-22T06:40:26.479Z,3.95
2023-03-22T06:43:12.017Z,4.10
2023-03-22T06:46:01.521Z,4.13
2023-03-22T06:48:54.053Z,4.07
2023-03-22T06:51:40.655Z,3.10
2023-03-22T06:54:26.566Z,3.03
2023-03-22T06:57:13.899Z,2.78
2023-03-22T06:59:59.890Z,2.88
2023-03-22T07:02:46.477Z,2.55
2023-03-22T07:05:46.621Z,2.70
2023-03-22T07:08:32.087Z,2.70
2023-03-22T07:11:17.806Z,2.65
2023-03-22T07:14:09.557Z,2.90
2023-03-22T07:17:18.026Z,2.65
2023-03-22T07:20:07.747Z,2.40
2023-03-22T07:22:53.990Z,3.30
2023-03-22T07:25:42.351Z,2.63
2023-03-22T07:28:44.894Z,2.10
2023-03-22T07:31:37.657Z,2.70
2023-03-22T07:34:30.514Z,2.38
2023-03-22T07:37:21.929Z,2.35
2023-03-22T07:40:09.026Z,2.45
2023-03-22T07:42:56.130Z,2.40
2023-03-22T07:46:00.443Z,2.25
2023-03-22T07:49:20.002Z,2.20
2023-03-22T07:52:25.943Z,2.28
2023-03-22T07:55:14.169Z,2.70
2023-03-22T07:58:00.796Z,2.30
2023-03-22T08:00:49.393Z,2.33
2023-03-22T08:04:13.380Z,2.90
2023-03-22T08:07:20.945Z,2.35
2023-03-22T08:10:07.301Z,2.40
2023-03-22T08:12:54.573Z,2.70
2023-03-22T08:15:44.431Z,2.58
2023-03-22T08:18:30.500Z,2.83
2023-03-22T08:21:16.706Z,2.95
2023-03-22T08:24:06.344Z,2.45
2023-03-22T08:27:01.379Z,3.00
2023-03-22T08:29:58.664Z,3.08
2023-03-22T08:32:44.802Z,2.80
2023-03-22T08:35:30.573Z,2.85
2023-03-22T08:38:16.858Z,2.45
2023-03-22T08:41:09.909Z,2.53
2023-03-22T08:43:56.189Z,3.00
2023-03-22T08:46:42.021Z,2.15
2023-03-22T08:49:28.839Z,2.42
2023-03-22T08:52:20.792Z,2.08
2023-03-22T08:55:23.308Z,2.35
2023-03-22T08:58:29.891Z,2.00
2023-03-22T09:01:48.197Z,2.00
2023-03-22T09:04:33.787Z,2.00
2023-03-22T09:07:21.283Z,1.98
2023-03-22T09:10:16.805Z,1.95
2023-03-22T09:13:05.018Z,2.10
2023-03-22T09:15:52.963Z,2.20
2023-03-22T09:18:45.784Z,2.00
2023-03-22T09:21:35.893Z,1.77
2023-03-22T09:24:33.900Z,1.80
2023-03-22T09:27:22.192Z,2.22
2023-03-22T09:30:09.801Z,1.95
2023-03-22T09:32:58.619Z,1.98
2023-03-22T09:35:44.617Z,1.92
2023-03-22T09:38:33.798Z,2.00
2023-03-22T09:41:27.289Z,2.10
2023-03-22T09:44:18.765Z,2.03
2023-03-22T09:47:07.340Z,2.33
2023-03-22T09:50:03.064Z,2.08
2023-03-22T09:52:49.568Z,2.20
2023-03-22T09:55:41.660Z,2.35
2023-03-22T09:58:33.131Z,2.17
2023-03-22T10:01:26.611Z,2.03
2023-03-22T10:04:33.939Z,2.33
2023-03-22T10:07:27.748Z,2.20
2023-03-22T10:10:18.537Z,2.38
2023-03-22T10:13:09.630Z,2.38
2023-03-22T10:18:47.218Z,2.20
2023-03-22T10:21:34.809Z,2.00
2023-03-22T10:24:26.690Z,2.15
2023-03-22T10:27:16.261Z,2.20
2023-03-22T10:30:08.177Z,2.47
2023-03-22T10:33:00.563Z,1.90
2023-03-22T10:35:47.328Z,1.92
2023-03-22T10:38:36.380Z,1.85
2023-03-22T10:41:26.017Z,2.00
2023-03-22T10:44:17.801Z,1.85
2023-03-22T10:47:08.069Z,2.58
2023-03-22T10:49:57.185Z,2.60
2023-03-22T10:52:48.486Z,1.95
2023-03-22T10:55:39.895Z,2.65
2023-03-22T10:58:31.574Z,2.40
2023-03-22T11:01:26.839Z,2.42
2023-03-22T11:04:15.077Z,2.42
2023-03-22T11:07:01.323Z,2.35
2023-03-22T11:09:47.295Z,2.88
2023-03-22T11:12:33.096Z,2.65
2023-03-22T11:15:25.229Z,2.75
2023-03-22T11:18:15.987Z,2.00
2023-03-22T11:23:56.716Z,2.40
2023-03-22T11:26:45.017Z,2.17
2023-03-22T11:29:40.253Z,2.40
2023-03-22T11:32:31.128Z,2.50
2023-03-22T11:35:21.401Z,2.00
2023-03-22T11:38:22.810Z,2.65
2023-03-22T11:41:20.146Z,1.98
2023-03-22T11:44:10.059Z,2.20
2023-03-22T11:46:58.288Z,2.13
2023-03-22T11:49:47.609Z,2.28
2023-03-22T11:52:33.737Z,2.35
2023-03-22T11:55:20.063Z,2.28
2023-03-22T11:58:06.829Z,2.55
2023-03-22T12:00:55.035Z,2.60
2023-03-22T12:03:43.262Z,2.67
2023-03-22T12:06:33.437Z,2.38
2023-03-22T12:09:28.242Z,2.17
2023-03-22T12:12:17.863Z,2.13
2023-03-22T12:15:13.722Z,2.70
2023-03-22T12:18:07.695Z,2.47
2023-03-22T12:20:55.798Z,2.42
2023-03-22T12:23:43.315Z,2.70
2023-03-22T12:26:33.347Z,2.40
2023-03-22T12:29:19.766Z,2.42
2023-03-22T12:32:09.775Z,2.78
2023-03-22T12:35:05.452Z,2.70
2023-03-22T12:38:05.010Z,2.92
2023-03-22T12:40:54.238Z,2.67
2023-03-22T12:43:46.796Z,2.67
2023-03-22T12:46:39.957Z,2.55
2023-03-22T12:49:34.446Z,2.83
2023-03-22T12:52:32.035Z,2.47
2023-03-22T12:55:26.053Z,2.40
2023-03-22T12:58:19.743Z,2.30
2023-03-22T13:01:21.031Z,2.40
2023-03-22T13:04:27.491Z,2.42
2023-03-22T13:07:16.646Z,2.20
2023-03-22T13:10:47.861Z,2.47
2023-03-22T13:13:44.381Z,2.42
2023-03-22T13:16:52.105Z,2.75
2023-03-22T13:19:38.170Z,2.13
2023-03-22T13:22:28.113Z,2.45
2023-03-22T13:25:29.099Z,2.45
2023-03-22T13:28:23.846Z,2.28
2023-03-22T13:31:34.182Z,2.20
2023-03-22T13:34:21.495Z,2.45
2023-03-22T13:37:17.769Z,2.30
2023-03-22T13:40:12.786Z,2.28
2023-03-22T13:43:11.560Z,2.38
2023-03-22T13:46:09.768Z,2.10
2023-03-22T13:49:29.064Z,1.73
2023-03-22T13:52:33.771Z,2.35
2023-03-22T13:55:43.891Z,2.42
2023-03-22T13:58:36.560Z,1.88
2023-03-22T14:01:29.280Z,2.17
2023-03-22T14:04:22.759Z,1.95
2023-03-22T14:07:15.414Z,2.10
2023-03-22T14:10:05.578Z,1.92
2023-03-22T14:12:54.797Z,2.28
2023-03-22T14:15:45.223Z,2.50
2023-03-22T14:18:32.555Z,2.40
2023-03-22T14:21:29.165Z,2.65
